Time;durP1;ratioP1;P1;durP2;ratioP2;P2;SDS_P1;SDS_P2;PMS_P1;PMS_P2;Temp;Humidity;BMP_temperature;BMP_pressure;BME280_temperature;BME280_humidity;BME280_pressure;Samples;Min_cycle;Max_cycle;Signal;HPM_P1;HPM_P2
2022/04/20 00:00:35;;;;;;;4.00;3.60;;;14.50;42.10;;;;;;5015767;28;21478;-72
2022/04/20 00:03:05;;;;;;;3.63;3.33;;;14.40;42.30;;;;;;5018247;28;20695;-71
2022/04/20 00:05:33;;;;;;;3.20;2.90;;;14.40;42.30;;;;;;5017506;28;20435;-74
2022/04/20 00:08:00;;;;;;;3.90;3.50;;;14.50;42.30;;;;;;5025835;28;20526;-73
2022/04/20 00:10:26;;;;;;;4.97;3.70;;;14.30;42.20;;;;;;5019039;28;21020;-74
2022/04/20 00:12:52;;;;;;;4.03;3.40;;;14.30;42.60;;;;;;5020075;28;21133;-72
2022/04/20 00:15:17;;;;;;;6.23;3.83;;;14.20;42.60;;;;;;5018247;28;20439;-72
2022/04/20 00:17:43;;;;;;;4.20;3.43;;;14.30;42.90;;;;;;5019041;28;20741;-71
2022/04/20 00:20:09;;;;;;;5.83;3.43;;;14.20;42.60;;;;;;5023357;28;20196;-71
2022/04/20 00:22:35;;;;;;;4.47;3.97;;;14.20;42.80;;;;;;5021143;28;20196;-72
2022/04/20 00:25:00;;;;;;;3.83;3.47;;;14.10;42.80;;;;;;5028514;28;20438;-71
2022/04/20 00:27:26;;;;;;;3.93;3.40;;;14.00;42.80;;;;;;5026900;28;20177;-73
2022/04/20 00:29:52;;;;;;;5.07;3.57;;;14.00;43.20;;;;;;5025949;28;20194;-72
2022/04/20 00:32:17;;;;;;;3.93;3.40;;;14.00;43.30;;;;;;5017432;28;20207;-74
2022/04/20 00:34:43;;;;;;;4.90;3.40;;;13.90;43.20;;;;;;5013289;28;20191;-72
2022/04/20 00:37:08;;;;;;;4.73;3.90;;;13.90;43.30;;;;;;5015309;28;20184;-75
2022/04/20 00:39:36;;;;;;;3.87;3.47;;;13.90;43.40;;;;;;5016386;28;20184;-74
2022/04/20 00:42:03;;;;;;;3.70;3.40;;;13.90;43.50;;;;;;5009783;28;20652;-73
2022/04/20 00:44:29;;;;;;;4.80;3.97;;;13.70;43.50;;;;;;5013543;28;21032;-75
2022/04/20 00:46:56;;;;;;;4.37;3.40;;;13.70;43.70;;;;;;5015551;28;20447;-73
2022/04/20 00:49:23;;;;;;;6.17;4.27;;;13.70;43.80;;;;;;5007853;28;20188;-74
2022/04/20 00:51:58;;;;;;;3.87;3.57;;;13.70;43.80;;;;;;5015077;28;20568;-73
2022/04/20 00:54:24;;;;;;;5.67;4.00;;;13.80;43.80;;;;;;5007968;28;20446;-74
2022/04/20 00:56:50;;;;;;;4.13;3.60;;;13.70;43.80;;;;;;5013287;28;20454;-71
2022/04/20 00:59:20;;;;;;;3.77;3.47;;;13.70;43.80;;;;;;5015961;28;20938;-72
2022/04/20 01:01:46;;;;;;;4.17;3.33;;;13.70;43.90;;;;;;5018419;28;20210;-75
2022/04/20 01:04:12;;;;;;;4.23;3.83;;;13.60;44.00;;;;;;5019119;28;20544;-72
2022/04/20 01:06:37;;;;;;;4.10;3.70;;;13.70;44.00;;;;;;5019935;28;20440;-73
2022/04/20 01:09:03;;;;;;;6.37;3.93;;;13.60;44.00;;;;;;5016646;28;20185;-72
2022/04/20 01:11:30;;;;;;;3.93;3.40;;;13.60;44.10;;;;;;5019410;28;20242;-71
2022/04/20 01:13:55;;;;;;;4.87;3.60;;;13.50;44.40;;;;;;5019997;28;20278;-72
2022/04/20 01:16:21;;;;;;;3.73;3.33;;;13.50;44.50;;;;;;5015241;28;20954;-72
2022/04/20 01:18:49;;;;;;;4.00;3.60;;;13.40;44.50;;;;;;5016504;28;20196;-72
2022/04/20 01:21:16;;;;;;;6.30;3.40;;;13.20;44.50;;;;;;5010751;28;20463;-75
2022/04/20 01:23:42;;;;;;;6.67;4.30;;;13.30;44.90;;;;;;5021984;28;20906;-75
2022/04/20 01:26:09;;;;;;;3.77;3.20;;;13.30;44.90;;;;;;5031791;28;20447;-72
2022/04/20 01:28:41;;;;;;;3.70;3.40;;;13.30;45.10;;;;;;5031716;28;20443;-72
2022/04/20 01:31:07;;;;;;;3.90;3.60;;;13.20;45.20;;;;;;5032168;28;20486;-73
2022/04/20 01:33:33;;;;;;;3.93;3.50;;;13.20;45.20;;;;;;5028045;28;20450;-72
2022/04/20 01:35:59;;;;;;;4.13;3.60;;;13.10;45.30;;;;;;5033455;28;20667;-73
2022/04/20 01:38:26;;;;;;;3.67;3.37;;;13.20;45.20;;;;;;5031980;28;20284;-75
2022/04/20 01:40:52;;;;;;;6.47;3.77;;;13.10;45.30;;;;;;5033106;28;20207;-72
2022/04/20 01:43:18;;;;;;;3.90;3.40;;;13.00;45.50;;;;;;5028192;28;20454;-69
2022/04/20 01:45:43;;;;;;;3.80;3.43;;;13.00;45.60;;;;;;5028640;28;20208;-72
2022/04/20 01:48:09;;;;;;;4.70;3.60;;;13.00;45.80;;;;;;5020570;28;20641;-72
2022/04/20 01:51:46;;;;;;;6.90;3.97;;;12.90;45.70;;;;;;5027298;28;20243;-74
2022/04/20 01:53:21;;;;;;;5.03;3.37;;;12.90;45.80;;;;;;5021846;28;20231;-72
2022/04/20 01:55:47;;;;;;;5.47;4.50;;;13.00;45.80;;;;;;5026221;28;20443;-73
2022/04/20 01:58:12;;;;;;;4.60;3.87;;;12.90;45.80;;;;;;5024579;28;20446;-74
2022/04/20 02:00:38;;;;;;;4.30;3.90;;;12.90;46.30;;;;;;5025926;28;20234;-73
2022/04/20 02:03:04;;;;;;;4.60;3.53;;;13.00;46.10;;;;;;5031380;28;20208;-75
2022/04/20 02:05:30;;;;;;;5.60;4.30;;;12.90;46.40;;;;;;5030293;28;20177;-75
2022/04/20 02:07:57;;;;;;;4.30;3.90;;;12.80;46.60;;;;;;5026351;28;20890;-74
2022/04/20 02:10:23;;;;;;;5.97;3.43;;;12.80;47.20;;;;;;5017428;28;20185;-74
2022/04/20 02:12:48;;;;;;;4.50;4.00;;;12.70;46.90;;;;;;5019260;28;20454;-72
2022/04/20 02:15:14;;;;;;;4.87;4.03;;;12.80;47.00;;;;;;5016718;28;20480;-74
2022/04/20 02:17:39;;;;;;;4.70;4.20;;;12.70;47.00;;;;;;5017040;28;20215;-72
2022/04/20 02:20:06;;;;;;;4.50;3.90;;;12.70;47.10;;;;;;5018720;28;20195;-72
2022/04/20 02:22:31;;;;;;;3.83;3.53;;;12.70;47.30;;;;;;5020438;28;20200;-72
2022/04/20 02:24:59;;;;;;;4.43;3.60;;;12.70;47.30;;;;;;5027517;28;20465;-72
2022/04/20 02:27:28;;;;;;;4.03;3.67;;;12.60;47.70;;;;;;5023039;28;20272;-74
2022/04/20 02:29:54;;;;;;;4.90;3.97;;;12.50;47.90;;;;;;5022673;28;20492;-71
2022/04/20 02:32:21;;;;;;;4.40;4.00;;;12.50;48.20;;;;;;5023931;28;20481;-72
2022/04/20 02:34:47;;;;;;;4.20;3.80;;;12.50;48.30;;;;;;5025884;28;20176;-71
2022/04/20 02:37:13;;;;;;;4.33;3.93;;;12.60;48.40;;;;;;5025943;28;20526;-72
2022/04/20 02:39:40;;;;;;;7.10;4.43;;;12.60;48.50;;;;;;5024528;28;20385;-75
2022/04/20 02:42:07;;;;;;;4.83;4.20;;;12.50;48.70;;;;;;5024377;28;20554;-73
2022/04/20 02:44:33;;;;;;;5.13;4.03;;;12.50;48.80;;;;;;5024535;28;20460;-72
2022/04/20 02:46:59;;;;;;;5.47;4.37;;;12.40;49.00;;;;;;5025792;28;20461;-73
2022/04/20 02:49:24;;;;;;;6.83;4.20;;;12.30;49.40;;;;;;5018277;28;20440;-73
2022/04/20 02:51:50;;;;;;;6.60;4.30;;;12.00;50.00;;;;;;5018879;28;20311;-72
2022/04/20 02:54:16;;;;;;;4.77;4.00;;;12.10;50.10;;;;;;5027556;28;20181;-74
2022/04/20 02:56:41;;;;;;;6.73;4.00;;;12.30;49.90;;;;;;5019753;28;20180;-71
2022/04/20 02:59:07;;;;;;;5.07;4.00;;;12.20;50.10;;;;;;5016252;28;20444;-72
2022/04/20 03:01:33;;;;;;;4.80;4.40;;;12.40;50.10;;;;;;5013800;28;20824;-74
2022/04/20 03:03:59;;;;;;;4.50;4.07;;;12.50;50.10;;;;;;5019123;28;20247;-73
2022/04/20 03:06:25;;;;;;;4.80;4.30;;;12.30;50.30;;;;;;5016024;28;20235;-73
2022/04/20 03:08:51;;;;;;;7.80;5.20;;;12.30;50.20;;;;;;5019861;28;20438;-71
2022/04/20 03:11:17;;;;;;;6.20;4.33;;;12.20;50.70;;;;;;5016098;28;20447;-75
2022/04/20 03:13:42;;;;;;;4.70;4.30;;;12.30;50.80;;;;;;5014439;28;20526;-73
2022/04/20 03:16:08;;;;;;;6.80;4.30;;;12.40;50.90;;;;;;5013138;28;20802;-75
2022/04/20 03:18:33;;;;;;;4.20;3.80;;;12.20;51.10;;;;;;5010679;28;20193;-72
2022/04/20 03:21:01;;;;;;;5.43;4.93;;;12.10;51.10;;;;;;5008168;28;20185;-75
2022/04/20 03:23:28;;;;;;;5.70;4.83;;;12.10;51.20;;;;;;5013485;28;20330;-75
2022/04/20 03:25:53;;;;;;;4.83;4.33;;;12.10;51.10;;;;;;5013937;28;20439;-71
2022/04/20 03:28:19;;;;;;;7.70;3.90;;;11.80;51.50;;;;;;5029347;28;20431;-74
2022/04/20 03:30:45;;;;;;;7.27;4.70;;;11.80;51.90;;;;;;5015553;28;20180;-73
2022/04/20 03:33:11;;;;;;;5.70;4.40;;;11.60;52.00;;;;;;5012427;28;20466;-74
2022/04/20 03:35:38;;;;;;;4.93;4.20;;;11.50;52.10;;;;;;5013057;28;20192;-75
2022/04/20 03:38:05;;;;;;;5.10;4.60;;;11.40;52.30;;;;;;5012416;28;20431;-75
2022/04/20 03:40:30;;;;;;;4.63;4.07;;;11.20;52.80;;;;;;5016610;28;20529;-73
2022/04/20 03:42:56;;;;;;;6.03;5.43;;;11.30;53.00;;;;;;5013388;28;20471;-75
2022/04/20 03:45:22;;;;;;;5.30;4.63;;;11.40;52.80;;;;;;5016838;28;20286;-73
2022/04/20 03:47:47;;;;;;;5.70;4.50;;;11.40;52.80;;;;;;5013400;28;20208;-75
2022/04/20 03:50:13;;;;;;;5.00;4.40;;;11.60;53.00;;;;;;5014645;28;20551;-73
2022/04/20 03:52:38;;;;;;;5.23;4.73;;;11.70;52.50;;;;;;5012821;28;20203;-76
2022/04/20 03:55:05;;;;;;;6.63;4.67;;;11.70;52.60;;;;;;5012802;28;20184;-75
2022/04/20 03:57:30;;;;;;;4.77;4.27;;;11.70;52.70;;;;;;5016520;28;20793;-75
2022/04/20 03:59:56;;;;;;;4.80;4.30;;;11.80;52.60;;;;;;5014582;28;20440;-74
2022/04/20 04:02:22;;;;;;;7.00;5.00;;;11.50;52.50;;;;;;5012878;28;20204;-73
2022/04/20 04:04:48;;;;;;;5.57;5.07;;;11.40;52.80;;;;;;5012279;28;20181;-74
2022/04/20 04:07:13;;;;;;;5.07;4.57;;;11.50;53.30;;;;;;5012314;28;20196;-76
2022/04/20 04:09:39;;;;;;;5.70;4.80;;;11.50;53.70;;;;;;5014020;28;20199;-75
2022/04/20 04:12:06;;;;;;;6.67;5.17;;;11.60;53.20;;;;;;5013464;28;20905;-74
2022/04/20 04:14:39;;;;;;;6.33;4.50;;;11.50;52.90;;;;;;5011046;28;20214;-74
2022/04/20 04:17:06;;;;;;;6.13;5.47;;;11.40;53.10;;;;;;5010105;28;20447;-75
2022/04/20 04:19:33;;;;;;;4.60;4.20;;;11.40;53.30;;;;;;5010538;28;20514;-77
2022/04/20 04:22:00;;;;;;;6.00;5.00;;;11.40;53.20;;;;;;5010056;28;20462;-75
2022/04/20 04:24:35;;;;;;;5.30;4.80;;;11.20;53.60;;;;;;5011093;28;20466;-76
2022/04/20 04:27:05;;;;;;;5.43;4.80;;;11.30;53.80;;;;;;5013163;28;20545;-76
2022/04/20 04:29:34;;;;;;;6.13;5.27;;;11.30;53.70;;;;;;5014730;28;21421;-74
2022/04/20 04:32:04;;;;;;;7.20;5.23;;;11.40;53.70;;;;;;5012188;28;20443;-73
2022/04/20 04:34:29;;;;;;;6.37;5.47;;;11.40;53.60;;;;;;5008433;28;20517;-73
2022/04/20 04:36:55;;;;;;;6.67;4.80;;;11.60;53.70;;;;;;5006179;28;20967;-73
2022/04/20 04:39:22;;;;;;;5.67;5.03;;;11.60;53.30;;;;;;5009710;28;21227;-75
2022/04/20 04:41:49;;;;;;;5.30;4.80;;;11.60;53.60;;;;;;5013140;28;20470;-73
2022/04/20 04:44:19;;;;;;;5.23;4.73;;;11.70;53.50;;;;;;5016944;28;20458;-73
2022/04/20 04:49:30;;;;;;;5.50;5.00;;;11.50;53.90;;;;;;5014074;28;20528;-73
2022/04/20 04:51:57;;;;;;;6.03;4.73;;;11.50;53.80;;;;;;5013590;28;20458;-75
2022/04/20 04:54:23;;;;;;;5.47;4.97;;;11.40;53.90;;;;;;5016754;28;20538;-74
2022/04/20 04:56:48;;;;;;;5.50;5.00;;;11.40;54.00;;;;;;5015894;28;20558;-75
2022/04/20 04:59:14;;;;;;;6.73;5.50;;;11.50;54.40;;;;;;5014167;28;20470;-73
2022/04/20 05:01:40;;;;;;;5.37;4.93;;;11.50;53.80;;;;;;5016722;28;20208;-74
2022/04/20 05:04:06;;;;;;;6.60;4.77;;;11.50;53.80;;;;;;5017131;28;20204;-72
2022/04/20 05:06:32;;;;;;;5.67;4.73;;;11.50;54.10;;;;;;5017795;28;20686;-74
2022/04/20 05:08:57;;;;;;;5.67;5.10;;;11.50;54.00;;;;;;5021442;28;20650;-72
2022/04/20 05:11:23;;;;;;;5.63;5.10;;;11.50;54.20;;;;;;5021144;28;20455;-76
2022/04/20 05:13:49;;;;;;;5.43;4.80;;;11.40;54.40;;;;;;5019768;28;20992;-74
2022/04/20 05:16:15;;;;;;;6.17;5.40;;;11.40;54.30;;;;;;5018049;28;20189;-74
2022/04/20 05:18:40;;;;;;;6.20;4.93;;;11.40;54.60;;;;;;5019276;28;20235;-73
2022/04/20 05:21:06;;;;;;;5.63;5.03;;;11.30;54.70;;;;;;5017901;28;20232;-72
2022/04/20 05:23:32;;;;;;;6.90;5.50;;;11.40;54.50;;;;;;5015528;28;20287;-74
2022/04/20 05:25:57;;;;;;;5.20;4.67;;;11.40;54.40;;;;;;5015050;28;20549;-74
2022/04/20 05:28:23;;;;;;;5.73;4.60;;;11.40;54.50;;;;;;5013262;28;20435;-74
2022/04/20 05:30:49;;;;;;;6.50;5.37;;;11.40;54.40;;;;;;5013779;28;20636;-72
2022/04/20 05:33:15;;;;;;;5.37;4.70;;;11.50;54.70;;;;;;5020826;28;20413;-72
2022/04/20 05:35:41;;;;;;;5.33;4.83;;;11.40;54.50;;;;;;5020625;28;20215;-73
2022/04/20 05:43:36;;;;;;;6.10;4.93;;;11.40;54.80;;;;;;5017520;28;20493;-72
2022/04/20 05:46:01;;;;;;;5.67;4.67;;;11.30;54.80;;;;;;5012168;28;20435;-71
2022/04/20 05:48:27;;;;;;;5.40;4.90;;;11.10;54.70;;;;;;5012730;28;20435;-71
2022/04/20 05:50:53;;;;;;;5.73;5.00;;;11.00;55.80;;;;;;5014293;28;20474;-71
2022/04/20 05:53:18;;;;;;;5.33;4.80;;;11.10;55.30;;;;;;5012547;28;20399;-73
2022/04/20 05:55:44;;;;;;;5.27;4.77;;;11.20;55.00;;;;;;5015691;28;20199;-74
2022/04/20 05:58:10;;;;;;;6.30;5.20;;;11.20;54.90;;;;;;5016806;28;20180;-71
2022/04/20 06:00:35;;;;;;;9.63;5.90;;;11.30;54.90;;;;;;5019766;28;20219;-74
2022/04/20 06:03:01;;;;;;;8.50;7.33;;;11.40;54.80;;;;;;5025532;28;20335;-72
2022/04/20 06:05:27;;;;;;;7.10;5.73;;;11.30;54.70;;;;;;5020496;28;20251;-74
2022/04/20 06:07:52;;;;;;;5.67;4.93;;;11.30;54.90;;;;;;5012348;28;20438;-73
2022/04/20 06:10:18;;;;;;;5.77;5.20;;;11.20;55.10;;;;;;5014639;28;20188;-71
2022/04/20 06:12:43;;;;;;;8.23;5.50;;;11.30;55.30;;;;;;5018465;28;20204;-72
2022/04/20 06:15:09;;;;;;;5.50;5.00;;;11.20;55.30;;;;;;5021849;28;20188;-72
2022/04/20 06:17:35;;;;;;;6.27;5.37;;;11.30;55.20;;;;;;5028459;28;20877;-74
2022/04/20 06:20:01;;;;;;;7.77;5.20;;;11.30;55.10;;;;;;5015607;28;20504;-71
2022/04/20 06:22:27;;;;;;;4.93;4.50;;;11.30;55.00;;;;;;5016936;28;20197;-73
2022/04/20 06:24:53;;;;;;;5.73;5.20;;;11.40;55.30;;;;;;5015893;28;20435;-73
2022/04/20 06:27:19;;;;;;;6.20;4.83;;;11.40;55.00;;;;;;5017395;28;20431;-73
2022/04/20 06:29:45;;;;;;;5.37;4.87;;;11.40;55.10;;;;;;5016594;28;20180;-73
2022/04/20 06:32:11;;;;;;;5.47;4.90;;;11.50;54.90;;;;;;5015793;28;20204;-75
2022/04/20 06:34:36;;;;;;;5.70;5.13;;;11.50;54.70;;;;;;5014462;28;20435;-71
2022/04/20 06:37:05;;;;;;;15.77;5.20;;;11.40;54.90;;;;;;5015309;28;20252;-73
2022/04/20 06:39:31;;;;;;;5.97;5.40;;;11.40;55.00;;;;;;5017372;28;20318;-71
2022/04/20 06:41:57;;;;;;;6.20;5.30;;;11.40;55.00;;;;;;5025452;28;20454;-75
2022/04/20 06:44:22;;;;;;;6.73;5.40;;;11.40;55.40;;;;;;5019288;28;20213;-75
2022/04/20 06:46:48;;;;;;;5.60;5.00;;;11.40;55.40;;;;;;5017976;28;20177;-73
2022/04/20 06:49:14;;;;;;;6.57;5.00;;;11.50;55.40;;;;;;5018827;28;20177;-71
2022/04/20 06:59:54;;;;;;;4.70;4.30;;;11.70;55.20;;;;;;5022190;28;20466;-71
2022/04/20 07:02:21;;;;;;;6.37;5.00;;;11.70;55.40;;;;;;5020176;28;20470;-74
2022/04/20 07:04:46;;;;;;;7.37;5.00;;;11.70;55.00;;;;;;5015295;28;20462;-73
2022/04/20 07:07:12;;;;;;;7.30;4.90;;;11.80;55.10;;;;;;5015687;28;20442;-71
2022/04/20 07:09:38;;;;;;;5.70;5.20;;;11.90;55.10;;;;;;5015238;28;20244;-73
2022/04/20 07:12:04;;;;;;;9.80;5.17;;;12.00;54.70;;;;;;5013043;28;21134;-72
2022/04/20 07:14:30;;;;;;;5.87;4.90;;;12.00;54.30;;;;;;5008605;28;20686;-73
2022/04/20 07:16:55;;;;;;;5.40;4.90;;;12.00;54.60;;;;;;5016080;28;20442;-74
2022/04/20 07:19:22;;;;;;;5.77;5.27;;;12.00;54.60;;;;;;5020161;28;20617;-72
2022/04/20 07:21:47;;;;;;;7.23;5.37;;;12.00;54.30;;;;;;5019988;28;20205;-74
2022/04/20 07:24:13;;;;;;;5.57;4.93;;;12.10;54.50;;;;;;5020423;28;20486;-73
2022/04/20 07:26:39;;;;;;;5.90;5.20;;;12.20;54.70;;;;;;5024920;28;20200;-72
2022/04/20 07:29:04;;;;;;;5.80;5.33;;;12.20;54.60;;;;;;5020896;28;20195;-71
2022/04/20 07:31:30;;;;;;;6.10;4.87;;;12.20;54.10;;;;;;5020137;28;21167;-75
2022/04/20 07:33:55;;;;;;;11.83;4.77;;;12.20;54.30;;;;;;5016828;28;20192;-74
2022/04/20 07:36:21;;;;;;;5.87;5.27;;;12.30;53.80;;;;;;5019779;28;20670;-72
2022/04/20 07:38:48;;;;;;;9.47;5.00;;;12.50;53.70;;;;;;5023094;28;21066;-73
2022/04/20 07:41:15;;;;;;;7.23;5.00;;;12.50;53.80;;;;;;5017420;28;20386;-75
2022/04/20 07:43:40;;;;;;;5.97;5.47;;;12.50;53.70;;;;;;5013438;28;20459;-74
2022/04/20 07:46:06;;;;;;;6.17;4.90;;;12.50;53.50;;;;;;5009503;28;21283;-73
2022/04/20 07:48:32;;;;;;;6.50;4.70;;;12.50;53.20;;;;;;5023212;28;20187;-71
2022/04/20 07:51:00;;;;;;;5.43;4.93;;;12.50;53.50;;;;;;5017760;28;20263;-72
2022/04/20 07:53:26;;;;;;;5.03;4.60;;;12.50;53.30;;;;;;5020759;28;20212;-71
2022/04/20 07:55:52;;;;;;;5.97;5.07;;;12.50;52.90;;;;;;5011901;28;20447;-74
2022/04/20 07:58:18;;;;;;;5.40;4.80;;;12.50;53.40;;;;;;4994996;28;20446;-74
2022/04/20 08:00:44;;;;;;;9.00;4.70;;;12.60;53.30;;;;;;5011266;28;20588;-73
2022/04/20 08:03:17;;;;;;;6.30;4.67;;;12.60;53.20;;;;;;5010473;28;20204;-73
2022/04/20 08:05:50;;;;;;;4.47;4.07;;;12.60;52.60;;;;;;4994033;28;20541;-73
2022/04/20 08:08:16;;;;;;;6.53;5.10;;;12.70;52.80;;;;;;5009000;28;20439;-75
2022/04/20 08:10:42;;;;;;;5.10;4.60;;;12.70;52.80;;;;;;5013504;28;20439;-74
2022/04/20 08:15:54;;;;;;;5.10;4.60;;;12.80;52.70;;;;;;5014284;28;20442;-74
2022/04/20 08:18:20;;;;;;;6.43;4.50;;;12.90;52.00;;;;;;5013887;28;20808;-74
2022/04/20 08:20:46;;;;;;;5.57;4.47;;;13.00;52.10;;;;;;5009261;28;20834;-74
2022/04/20 08:23:12;;;;;;;5.80;4.93;;;13.00;51.80;;;;;;5009976;28;20211;-74
2022/04/20 08:25:39;;;;;;;5.47;4.97;;;13.00;51.70;;;;;;5014072;28;20428;-73
2022/04/20 08:28:06;;;;;;;4.37;4.07;;;13.10;51.30;;;;;;5011654;28;20651;-74
2022/04/20 08:30:32;;;;;;;5.40;4.67;;;13.10;51.20;;;;;;5012555;28;20463;-74
2022/04/20 08:32:58;;;;;;;6.00;4.87;;;13.10;51.30;;;;;;5012271;28;20455;-74
2022/04/20 08:35:24;;;;;;;8.07;4.53;;;13.20;51.20;;;;;;5011572;28;20427;-74
2022/04/20 08:37:49;;;;;;;4.77;4.37;;;13.20;51.10;;;;;;5012066;28;20271;-72
2022/04/20 08:40:15;;;;;;;5.10;4.57;;;13.20;50.70;;;;;;5009073;28;20192;-76
2022/04/20 08:42:41;;;;;;;5.03;4.57;;;13.20;50.50;;;;;;5013724;28;20212;-75
2022/04/20 08:45:08;;;;;;;6.23;4.80;;;13.20;50.30;;;;;;5019578;28;20284;-76
2022/04/20 08:47:39;;;;;;;5.50;4.03;;;13.20;50.10;;;;;;5022118;28;22123;-72
2022/04/20 08:50:08;;;;;;;4.57;3.57;;;13.20;48.80;;;;;;5018225;28;20434;-76
2022/04/20 08:52:38;;;;;;;5.53;4.23;;;13.30;48.40;;;;;;5024337;28;20960;-73
2022/04/20 08:55:22;;;;;;;7.23;4.63;;;13.40;49.00;;;;;;5025012;28;20445;-75
2022/04/20 08:57:50;;;;;;;4.90;4.40;;;13.40;48.80;;;;;;5016460;28;20441;-75
2022/04/20 09:00:21;;;;;;;5.10;4.30;;;13.40;49.20;;;;;;5017029;28;20519;-75
2022/04/20 09:02:56;;;;;;;6.50;4.60;;;13.50;48.50;;;;;;5013800;28;20459;-72
2022/04/20 09:05:27;;;;;;;5.23;4.13;;;13.50;48.50;;;;;;5014858;28;20457;-73
2022/04/20 09:07:53;;;;;;;4.77;4.30;;;13.60;48.70;;;;;;5014615;28;20812;-73
2022/04/20 09:10:19;;;;;;;4.97;4.47;;;13.60;48.70;;;;;;5012619;28;20446;-75
2022/04/20 09:12:46;;;;;;;4.57;4.10;;;13.70;48.30;;;;;;5013479;28;20227;-72
2022/04/20 09:15:27;;;;;;;5.67;5.27;;;13.70;48.10;;;;;;5016496;28;20444;-75
2022/04/20 09:17:58;;;;;;;6.43;4.70;;;13.60;48.30;;;;;;5013015;28;20434;-73
2022/04/20 09:20:24;;;;;;;23.83;17.40;;;13.70;48.40;;;;;;5008348;28;20963;-74
2022/04/20 09:23:07;;;;;;;10.90;8.50;;;13.80;48.70;;;;;;5006996;28;20443;-71
2022/04/20 09:25:53;;;;;;;6.10;4.83;;;13.70;48.30;;;;;;5007410;28;20466;-74
2022/04/20 09:28:20;;;;;;;5.60;4.57;;;13.80;47.90;;;;;;5011580;28;20450;-71
2022/04/20 09:30:50;;;;;;;5.40;4.70;;;13.90;47.80;;;;;;5008928;28;20435;-74
2022/04/20 09:33:15;;;;;;;5.40;4.90;;;13.90;47.80;;;;;;5015395;28;20425;-74
2022/04/20 09:35:41;;;;;;;5.50;4.83;;;14.00;47.60;;;;;;5016349;28;21147;-72
2022/04/20 09:38:08;;;;;;;6.67;5.57;;;14.00;47.30;;;;;;5018772;28;20250;-73
2022/04/20 09:40:37;;;;;;;6.70;4.37;;;14.10;47.60;;;;;;5019518;28;20319;-71
2022/04/20 09:43:06;;;;;;;5.90;5.40;;;14.10;47.60;;;;;;5021428;28;20451;-74
2022/04/20 09:45:33;;;;;;;6.57;5.97;;;14.20;47.60;;;;;;5016340;28;20435;-74
2022/04/20 09:51:12;;;;;;;5.20;4.03;;;14.30;47.90;;;;;;5022377;28;20447;-73
2022/04/20 09:53:40;;;;;;;4.93;4.37;;;14.40;46.90;;;;;;5016768;28;20427;-73
2022/04/20 09:56:23;;;;;;;4.60;4.20;;;14.40;46.40;;;;;;5019656;28;20895;-74
2022/04/20 09:59:06;;;;;;;5.13;4.63;;;14.40;46.50;;;;;;5015731;28;20730;-75
2022/04/20 10:01:34;;;;;;;5.03;4.53;;;14.50;47.00;;;;;;5018157;28;20554;-74
2022/04/20 10:04:02;;;;;;;8.40;4.40;;;14.50;46.80;;;;;;5016581;28;20889;-75
2022/04/20 10:06:28;;;;;;;4.77;4.23;;;14.50;46.90;;;;;;5010054;28;20427;-74
2022/04/20 10:08:54;;;;;;;7.10;4.50;;;14.60;46.80;;;;;;5022011;28;20427;-72
2022/04/20 10:11:24;;;;;;;4.73;4.17;;;14.60;46.70;;;;;;5023096;28;20443;-74
2022/04/20 10:16:45;;;;;;;4.97;4.33;;;14.70;46.10;;;;;;5018677;28;20512;-76
2022/04/20 10:19:13;;;;;;;7.53;4.37;;;14.80;45.80;;;;;;5010863;28;20427;-72
2022/04/20 10:21:47;;;;;;;4.40;4.00;;;14.80;45.70;;;;;;5018558;28;20451;-72
2022/04/20 10:24:16;;;;;;;5.73;4.47;;;14.90;45.50;;;;;;5020724;28;20570;-72
2022/04/20 10:26:43;;;;;;;4.43;4.03;;;14.90;44.60;;;;;;5011327;28;20530;-71
2022/04/20 10:29:27;;;;;;;4.33;3.93;;;14.90;44.00;;;;;;5015568;28;20435;-71
2022/04/20 10:32:07;;;;;;;4.90;4.40;;;15.00;44.70;;;;;;5015309;28;20487;-73
2022/04/20 10:34:34;;;;;;;4.80;4.40;;;15.00;43.80;;;;;;5018349;28;20439;-73
2022/04/20 10:37:04;;;;;;;4.17;3.80;;;15.00;43.60;;;;;;5017984;28;20522;-72
2022/04/20 10:39:40;;;;;;;4.60;4.03;;;15.00;43.60;;;;;;5022650;28;20582;-72
2022/04/20 10:42:11;;;;;;;5.67;4.00;;;15.20;43.70;;;;;;5023580;28;20461;-74
2022/04/20 10:44:49;;;;;;;6.17;5.57;;;15.30;44.50;;;;;;5024665;28;20470;-70
2022/04/20 10:47:20;;;;;;;4.97;4.23;;;15.30;43.80;;;;;;5024130;28;20521;-73
2022/04/20 10:49:46;;;;;;;4.53;4.13;;;15.40;43.40;;;;;;5017487;28;20460;-73
2022/04/20 10:52:36;;;;;;;5.27;3.90;;;15.40;43.10;;;;;;5023322;28;20536;-73
2022/04/20 10:55:04;;;;;;;5.40;4.60;;;15.40;42.30;;;;;;5023645;28;20227;-74
2022/04/20 10:57:35;;;;;;;5.00;3.83;;;15.50;42.80;;;;;;5024182;28;20894;-71
2022/04/20 11:00:16;;;;;;;4.13;3.83;;;15.50;42.40;;;;;;5025159;28;20427;-71
2022/04/20 11:02:49;;;;;;;6.27;4.90;;;15.50;42.70;;;;;;5021978;28;20534;-74
2022/04/20 11:05:15;;;;;;;5.60;5.10;;;15.60;42.90;;;;;;5025386;28;20427;-74
2022/04/20 11:08:11;;;;;;;4.40;4.00;;;15.70;42.20;;;;;;5025584;28;20506;-73
2022/04/20 11:18:38;;;;;;;7.53;4.30;;;15.70;41.30;;;;;;5023229;28;20466;-75
2022/04/20 11:19:33;;;;;;;9.63;4.23;;;16.00;42.50;;;;;;5022914;28;20454;-74
2022/04/20 11:22:08;;;;;;;5.43;4.33;;;16.00;41.60;;;;;;5024242;28;20485;-71
2022/04/20 11:24:34;;;;;;;5.13;4.63;;;16.10;41.70;;;;;;5026481;28;20598;-72
2022/04/20 11:27:00;;;;;;;4.90;4.47;;;16.20;41.40;;;;;;5022001;28;20563;-74
2022/04/20 11:29:30;;;;;;;4.80;4.40;;;16.10;41.30;;;;;;5024964;28;20299;-74
2022/04/20 11:31:59;;;;;;;4.83;4.33;;;16.20;41.00;;;;;;5024288;28;20540;-71
2022/04/20 11:34:27;;;;;;;4.63;4.23;;;16.30;41.70;;;;;;5022456;28;20452;-74
2022/04/20 11:36:55;;;;;;;11.10;4.43;;;16.40;41.60;;;;;;5022429;28;21057;-72
2022/04/20 11:39:24;;;;;;;4.77;4.33;;;16.50;41.50;;;;;;5025109;28;20495;-74
2022/04/20 11:41:51;;;;;;;5.00;4.60;;;16.60;41.70;;;;;;5016230;28;20586;-71
2022/04/20 11:44:24;;;;;;;6.40;5.80;;;16.80;41.10;;;;;;5016920;28;20495;-73
2022/04/20 11:46:51;;;;;;;5.13;4.73;;;16.80;40.50;;;;;;5016000;28;20550;-74
2022/04/20 11:49:18;;;;;;;5.40;4.90;;;16.90;40.40;;;;;;5011811;28;20439;-72
2022/04/20 11:52:00;;;;;;;5.20;4.50;;;17.00;40.50;;;;;;5020311;28;20451;-73
2022/04/20 11:54:30;;;;;;;4.57;4.27;;;17.20;40.60;;;;;;5021253;28;20530;-73
2022/04/20 11:56:56;;;;;;;8.03;4.93;;;17.60;40.90;;;;;;5019689;28;20463;-73
2022/04/20 11:59:24;;;;;;;5.60;5.20;;;17.70;40.00;;;;;;5018034;28;20941;-75
2022/04/20 12:01:50;;;;;;;5.37;4.87;;;17.90;39.60;;;;;;5013909;28;20455;-72
2022/04/20 12:04:25;;;;;;;7.57;4.67;;;18.10;39.40;;;;;;5020750;28;20482;-72
2022/04/20 12:06:56;;;;;;;5.10;4.40;;;18.80;39.20;;;;;;5023373;28;20538;-74
2022/04/20 12:09:29;;;;;;;4.50;4.10;;;19.40;38.80;;;;;;5022376;28;20431;-73
2022/04/20 12:12:00;;;;;;;6.20;4.80;;;20.10;38.20;;;;;;5015703;28;20462;-74
2022/04/20 12:14:32;;;;;;;5.40;4.90;;;20.70;36.70;;;;;;5023149;28;20481;-73
2022/04/20 12:17:01;;;;;;;5.40;4.90;;;21.20;36.40;;;;;;5017830;28;20441;-74
2022/04/20 12:19:30;;;;;;;5.50;5.00;;;21.50;35.30;;;;;;5020228;28;20477;-73
2022/04/20 12:22:03;;;;;;;5.73;5.23;;;21.50;35.40;;;;;;5019941;28;21341;-74
2022/04/20 12:24:29;;;;;;;5.40;4.90;;;21.80;35.30;;;;;;5020181;28;20455;-73
2022/04/20 12:26:56;;;;;;;5.20;4.60;;;21.90;34.50;;;;;;5023393;28;20440;-71
2022/04/20 12:29:24;;;;;;;7.87;6.10;;;22.10;34.70;;;;;;5012525;28;20215;-74
2022/04/20 12:31:54;;;;;;;5.00;4.60;;;22.30;34.70;;;;;;5007571;28;20469;-73
2022/04/20 12:34:23;;;;;;;6.50;5.10;;;22.70;35.00;;;;;;5014406;28;21336;-72
2022/04/20 12:36:54;;;;;;;5.30;4.90;;;22.80;33.80;;;;;;5013205;28;20438;-72
2022/04/20 12:39:25;;;;;;;5.90;5.40;;;23.10;33.40;;;;;;5019248;28;20431;-75
2022/04/20 12:41:54;;;;;;;5.27;4.33;;;23.00;33.50;;;;;;5015078;28;20486;-74
2022/04/20 12:44:39;;;;;;;5.17;4.73;;;23.30;33.90;;;;;;5018140;28;20481;-71
2022/04/20 12:47:10;;;;;;;5.30;4.80;;;23.70;32.90;;;;;;5014706;28;20443;-74
2022/04/20 12:49:35;;;;;;;7.83;4.77;;;23.70;32.50;;;;;;5014874;28;20422;-72
2022/04/20 12:52:19;;;;;;;4.60;4.20;;;23.90;33.90;;;;;;5016806;28;20465;-74
2022/04/20 12:54:54;;;;;;;5.30;4.80;;;24.30;33.70;;;;;;5018404;28;20663;-72
2022/04/20 13:03:08;;;;;;;5.47;4.97;;;24.60;31.00;;;;;;5020825;28;20477;-74
2022/04/20 13:05:35;;;;;;;4.70;4.30;;;24.30;31.50;;;;;;5024546;28;20430;-75
2022/04/20 13:08:02;;;;;;;4.93;4.37;;;24.60;31.20;;;;;;5021241;28;20435;-73
2022/04/20 13:10:34;;;;;;;9.10;4.57;;;24.90;30.90;;;;;;5021634;28;20454;-74
2022/04/20 13:12:59;;;;;;;5.63;5.03;;;25.30;30.90;;;;;;5014237;28;20455;-74
2022/04/20 13:15:25;;;;;;;5.13;4.63;;;25.80;29.90;;;;;;5018500;28;20442;-74
2022/04/20 13:17:51;;;;;;;6.40;5.10;;;26.10;30.00;;;;;;5018018;28;20184;-74
2022/04/20 13:20:19;;;;;;;4.37;3.97;;;28.00;29.90;;;;;;5019779;28;20949;-75
2022/04/20 13:22:45;;;;;;;5.13;4.73;;;29.20;29.00;;;;;;5020874;28;21522;-75
2022/04/20 13:27:55;;;;;;;6.87;4.80;;;31.00;27.60;;;;;;5013099;28;20430;-76